createdAt,value
2019-03-22T00:01:22.410Z,54.20
2019-03-22T00:03:52.143Z,54.20
2019-03-22T00:06:21.816Z,54.60
2019-03-22T00:08:54.304Z,54.80
2019-03-22T00:11:23.983Z,55.00
2019-03-22T00:13:53.632Z,55.40
2019-03-22T00:16:23.338Z,54.40
2019-03-22T00:18:53.070Z,54.40
2019-03-22T00:21:22.781Z,54.60
2019-03-22T00:23:52.581Z,54.30
2019-03-22T00:26:22.424Z,54.40
2019-03-22T00:28:53.689Z,54.80
2019-03-22T00:31:25.001Z,55.40
2019-03-22T00:33:55.662Z,55.30
2019-03-22T00:36:25.403Z,55.50
2019-03-22T00:38:55.121Z,55.90
2019-03-22T00:41:24.769Z,55.90
2019-03-22T00:43:54.441Z,56.10
2019-03-22T00:46:24.255Z,56.00
2019-03-22T00:48:53.928Z,55.90
2019-03-22T00:51:23.581Z,55.50
2019-03-22T00:53:53.255Z,55.50
2019-03-22T00:56:22.923Z,55.50
2019-03-22T00:58:52.591Z,55.70
2019-03-22T01:01:22.192Z,55.90
2019-03-22T01:03:51.880Z,56.10
2019-03-22T01:06:21.639Z,55.90
2019-03-22T01:08:51.281Z,55.80
2019-03-22T01:11:21.027Z,55.80
2019-03-22T01:13:50.614Z,55.70
2019-03-22T01:16:20.139Z,55.90
2019-03-22T01:18:50.940Z,55.90
2019-03-22T01:21:20.686Z,55.90
2019-03-22T01:23:50.343Z,55.90
2019-03-22T01:26:20.264Z,55.80
2019-03-22T01:28:49.849Z,56.00
2019-03-22T01:31:19.516Z,56.20
2019-03-22T01:33:49.161Z,56.10
2019-03-22T01:36:18.919Z,56.10
2019-03-22T01:38:48.642Z,56.30
2019-03-22T01:41:18.395Z,56.40
2019-03-22T01:43:48.036Z,56.40
2019-03-22T01:46:17.865Z,56.40
2019-03-22T01:48:47.662Z,56.20
2019-03-22T01:51:17.332Z,56.00
2019-03-22T01:53:48.526Z,56.10
2019-03-22T01:56:18.196Z,56.70
2019-03-22T01:58:47.845Z,57.10
2019-03-22T02:01:17.507Z,57.70
2019-03-22T02:03:47.176Z,57.70
2019-03-22T02:06:16.933Z,57.40
2019-03-22T02:08:46.605Z,57.90
2019-03-22T02:11:18.375Z,58.60
2019-03-22T02:13:47.831Z,58.80
2019-03-22T02:16:17.650Z,58.80
2019-03-22T02:18:48.280Z,58.90
2019-03-22T02:21:17.941Z,58.60
2019-03-22T02:23:51.959Z,58.80
2019-03-22T02:26:20.502Z,58.70
2019-03-22T02:28:50.164Z,58.20
2019-03-22T02:31:19.841Z,57.70
2019-03-22T02:33:49.515Z,57.40
2019-03-22T02:36:20.710Z,57.30
2019-03-22T02:38:50.512Z,57.10
2019-03-22T02:41:20.178Z,56.90
2019-03-22T02:43:50.772Z,57.10
2019-03-22T02:46:20.476Z,57.30
2019-03-22T02:48:50.112Z,57.40
2019-03-22T02:51:19.720Z,57.60
2019-03-22T02:53:49.446Z,57.90
2019-03-22T02:56:19.149Z,58.10
2019-03-22T02:58:48.687Z,58.20
2019-03-22T03:01:18.397Z,58.10
2019-03-22T03:03:48.130Z,58.30
2019-03-22T03:06:17.770Z,58.50
2019-03-22T03:08:47.422Z,58.20
2019-03-22T03:11:17.203Z,57.80
2019-03-22T03:13:47.003Z,58.10
2019-03-22T03:16:16.645Z,58.40
2019-03-22T03:18:46.292Z,58.90
2019-03-22T03:21:17.432Z,58.90
2019-03-22T03:23:47.025Z,58.60
2019-03-22T03:26:16.637Z,58.70
2019-03-22T03:28:46.297Z,58.90
2019-03-22T03:31:15.985Z,58.60
2019-03-22T03:33:45.636Z,59.10
2019-03-22T03:36:15.365Z,59.20
2019-03-22T03:38:44.943Z,59.10
2019-03-22T03:41:14.681Z,59.70
2019-03-22T03:43:45.929Z,59.00
2019-03-22T03:46:17.657Z,58.70
2019-03-22T03:48:48.954Z,58.80
2019-03-22T03:51:18.606Z,59.90
2019-03-22T03:53:48.272Z,59.90
2019-03-22T03:56:18.200Z,60.40
2019-03-22T03:58:52.707Z,59.20
2019-03-22T04:01:19.155Z,58.80
2019-03-22T04:03:50.001Z,58.60
2019-03-22T04:06:19.723Z,58.80
2019-03-22T04:08:50.801Z,59.00
2019-03-22T04:11:21.586Z,59.40
2019-03-22T04:13:51.115Z,59.60
2019-03-22T04:16:20.867Z,59.40
2019-03-22T04:18:50.576Z,58.70
2019-03-22T04:21:20.370Z,58.60
2019-03-22T04:23:50.204Z,58.40
2019-03-22T04:26:21.488Z,58.50
2019-03-22T04:29:06.217Z,58.50
2019-03-22T04:31:22.455Z,59.10
2019-03-22T04:33:52.579Z,59.60
2019-03-22T04:36:22.291Z,60.00
2019-03-22T04:38:52.009Z,59.70
2019-03-22T04:41:21.813Z,60.00
2019-03-22T04:43:53.750Z,59.90
2019-03-22T04:46:24.494Z,60.10
2019-03-22T04:48:55.126Z,60.50
2019-03-22T04:51:26.025Z,60.80
2019-03-22T04:53:58.887Z,60.60
2019-03-22T04:56:31.097Z,60.60
2019-03-22T04:59:02.208Z,61.60
2019-03-22T05:01:33.250Z,62.00
2019-03-22T05:04:04.137Z,62.30
2019-03-22T05:06:34.077Z,62.20
2019-03-22T05:09:06.281Z,62.20
2019-03-22T05:11:36.889Z,61.70
2019-03-22T05:14:07.598Z,61.60
2019-03-22T05:16:41.637Z,62.10
2019-03-22T05:19:12.258Z,62.30
2019-03-22T05:21:42.634Z,62.30
2019-03-22T05:24:13.849Z,61.70
2019-03-22T05:26:44.770Z,61.80
2019-03-22T05:29:14.826Z,62.00
2019-03-22T05:31:50.348Z,61.90
2019-03-22T05:34:19.912Z,61.80
2019-03-22T05:36:49.488Z,61.80
2019-03-22T05:39:19.068Z,61.80
2019-03-22T05:41:48.721Z,62.70
2019-03-22T05:44:18.446Z,62.60
2019-03-22T05:46:49.021Z,62.50
2019-03-22T05:49:18.846Z,62.60
2019-03-22T05:51:48.633Z,62.80
2019-03-22T05:54:18.358Z,62.40
2019-03-22T05:56:48.012Z,62.30
2019-03-22T05:59:17.813Z,61.90
2019-03-22T06:01:48.538Z,60.90
2019-03-22T06:04:18.266Z,61.00
2019-03-22T06:06:47.916Z,61.10
2019-03-22T06:09:17.799Z,61.20
2019-03-22T06:11:47.370Z,61.30
2019-03-22T06:14:17.022Z,61.20
2019-03-22T06:16:46.610Z,60.80
2019-03-22T06:19:16.431Z,61.00
2019-03-22T06:21:46.024Z,61.20
2019-03-22T06:24:15.750Z,60.80
2019-03-22T06:26:45.338Z,61.40
2019-03-22T06:29:15.060Z,61.50
2019-03-22T06:31:44.781Z,61.70
2019-03-22T06:34:15.502Z,61.60
2019-03-22T06:36:45.221Z,61.50
2019-03-22T06:39:14.954Z,60.30
2019-03-22T06:41:44.605Z,60.30
2019-03-22T06:44:14.394Z,59.90
2019-03-22T06:46:43.978Z,59.60
2019-03-22T06:49:13.716Z,59.20
2019-03-22T06:51:43.451Z,59.20
2019-03-22T06:54:13.162Z,59.00
2019-03-22T06:56:42.823Z,58.20
2019-03-22T06:59:12.411Z,57.90
2019-03-22T07:01:42.158Z,57.90
2019-03-22T07:04:11.809Z,57.60
2019-03-22T07:06:41.591Z,56.70
2019-03-22T07:09:11.399Z,55.90
2019-03-22T07:11:41.955Z,55.50
2019-03-22T07:14:11.794Z,53.20
2019-03-22T07:16:41.520Z,52.00
2019-03-22T07:19:11.174Z,51.30
2019-03-22T07:21:40.883Z,50.20
2019-03-22T07:24:10.544Z,49.50
2019-03-22T07:26:40.128Z,49.00
2019-03-22T07:29:09.836Z,48.80
2019-03-22T07:31:39.626Z,48.70
2019-03-22T07:34:09.202Z,48.70
2019-03-22T07:36:38.791Z,47.80
2019-03-22T07:39:09.270Z,47.10
2019-03-22T07:41:38.851Z,47.60
2019-03-22T07:44:08.592Z,47.30
2019-03-22T07:46:38.240Z,46.70
2019-03-22T07:49:07.959Z,46.30
2019-03-22T07:51:37.535Z,45.10
2019-03-22T07:54:07.228Z,44.90
2019-03-22T07:56:36.953Z,44.90
2019-03-22T07:59:06.631Z,45.50
2019-03-22T08:01:36.435Z,45.00
2019-03-22T08:04:06.116Z,45.30
2019-03-22T08:06:35.711Z,45.60
2019-03-22T08:09:08.324Z,46.10
2019-03-22T08:11:38.958Z,46.10
2019-03-22T08:14:08.624Z,46.50
2019-03-22T08:16:38.358Z,46.20
2019-03-22T08:19:08.119Z,45.50
2019-03-22T08:21:37.906Z,45.30
2019-03-22T08:24:07.701Z,44.80
2019-03-22T08:26:37.336Z,44.10
2019-03-22T08:29:06.964Z,44.10
2019-03-22T08:31:36.584Z,44.20
2019-03-22T08:34:06.452Z,43.50
2019-03-22T08:36:36.077Z,42.60
2019-03-22T08:39:08.284Z,41.50
2019-03-22T08:41:38.559Z,41.30
2019-03-22T08:44:08.283Z,40.60
2019-03-22T08:46:38.085Z,41.00
2019-03-22T08:49:09.535Z,40.50
2019-03-22T08:51:39.063Z,40.20
2019-03-22T08:54:09.788Z,39.90
2019-03-22T08:56:39.519Z,38.70
2019-03-22T08:59:09.258Z,38.30
2019-03-22T09:01:38.853Z,37.30
2019-03-22T09:04:08.453Z,37.20
2019-03-22T09:06:38.121Z,36.40
2019-03-22T09:09:08.001Z,36.00
2019-03-22T09:11:37.727Z,36.40
2019-03-22T09:14:07.207Z,36.00
2019-03-22T09:16:36.881Z,36.00
2019-03-22T09:19:06.494Z,35.80
2019-03-22T09:21:37.452Z,35.30
2019-03-22T09:24:08.750Z,35.20
2019-03-22T09:26:47.658Z,35.00
2019-03-22T09:29:09.534Z,35.30
2019-03-22T09:31:39.292Z,35.00
2019-03-22T09:34:08.925Z,34.80
2019-03-22T09:36:38.579Z,34.70
2019-03-22T09:39:08.527Z,34.00
2019-03-22T09:41:38.147Z,33.20
2019-03-22T09:44:07.721Z,32.50
2019-03-22T09:46:37.545Z,32.60
2019-03-22T09:49:07.241Z,32.80
2019-03-22T09:51:36.996Z,32.00
2019-03-22T09:54:06.516Z,32.60
2019-03-22T09:56:46.457Z,32.20
2019-03-22T09:59:07.649Z,32.30
2019-03-22T10:01:37.452Z,32.20
2019-03-22T10:04:07.153Z,30.60
2019-03-22T10:06:36.722Z,30.30
2019-03-22T10:09:07.544Z,29.80
2019-03-22T10:11:37.413Z,29.60
2019-03-22T10:14:07.085Z,29.90
2019-03-22T10:16:36.898Z,30.30
2019-03-22T10:19:06.565Z,30.40
2019-03-22T10:21:36.298Z,30.70
2019-03-22T10:24:06.042Z,30.70
2019-03-22T10:26:35.767Z,29.70
2019-03-22T10:29:07.147Z,29.50
2019-03-22T10:31:37.932Z,29.40
2019-03-22T10:34:07.808Z,29.70
2019-03-22T10:36:37.494Z,29.50
2019-03-22T10:39:08.836Z,29.20
2019-03-22T10:41:38.556Z,28.40
2019-03-22T10:44:08.358Z,27.80
2019-03-22T10:46:38.197Z,28.10
2019-03-22T10:49:08.053Z,28.80
2019-03-22T10:51:37.839Z,27.70
2019-03-22T10:54:08.486Z,27.30
2019-03-22T10:56:38.272Z,26.80
2019-03-22T10:59:08.009Z,26.60
2019-03-22T11:01:48.677Z,26.10
2019-03-22T11:04:11.550Z,25.20
2019-03-22T11:06:41.280Z,24.90
2019-03-22T11:09:11.083Z,25.60
2019-03-22T11:11:40.690Z,25.40
2019-03-22T11:14:10.435Z,25.30
2019-03-22T11:16:40.230Z,25.00
2019-03-22T11:19:09.958Z,25.00
2019-03-22T11:21:39.729Z,24.80
2019-03-22T11:24:09.486Z,24.50
2019-03-22T11:26:39.287Z,24.60
2019-03-22T11:29:09.212Z,24.70
2019-03-22T11:31:40.042Z,24.30
2019-03-22T11:34:10.140Z,24.30
2019-03-22T11:36:39.861Z,24.10
2019-03-22T11:39:15.546Z,24.20
2019-03-22T11:41:42.997Z,24.30
2019-03-22T11:44:12.765Z,24.30
2019-03-22T11:46:42.500Z,24.10
2019-03-22T11:49:12.229Z,24.60
2019-03-22T11:51:41.988Z,24.50
2019-03-22T11:54:11.666Z,24.90
2019-03-22T11:56:41.412Z,24.70
2019-03-22T11:59:11.204Z,23.50
2019-03-22T12:01:40.871Z,23.10
2019-03-22T12:04:11.946Z,23.00
2019-03-22T12:06:41.642Z,23.20
2019-03-22T12:09:11.307Z,22.70
2019-03-22T12:11:42.225Z,22.50
2019-03-22T12:14:11.965Z,22.40
2019-03-22T12:16:41.557Z,22.30
2019-03-22T12:19:11.135Z,22.60
2019-03-22T12:21:40.740Z,22.30
2019-03-22T12:24:10.333Z,21.50
2019-03-22T12:26:39.976Z,21.80
2019-03-22T12:29:09.708Z,21.60
2019-03-22T12:31:39.346Z,21.70
2019-03-22T12:34:09.075Z,20.90
2019-03-22T12:36:38.780Z,21.00
2019-03-22T12:39:08.842Z,21.10
2019-03-22T12:41:38.503Z,20.80
2019-03-22T12:44:08.218Z,20.50
2019-03-22T12:46:37.922Z,21.40
2019-03-22T12:49:09.646Z,21.80
2019-03-22T12:51:39.303Z,20.80
2019-03-22T12:54:09.044Z,20.60
2019-03-22T12:56:38.695Z,20.40
2019-03-22T12:59:08.495Z,20.10
2019-03-22T13:01:39.763Z,20.60
2019-03-22T13:04:09.468Z,20.30
2019-03-22T13:06:39.121Z,20.30
2019-03-22T13:09:09.230Z,20.70
2019-03-22T13:11:39.042Z,20.50
2019-03-22T13:14:08.778Z,20.20
2019-03-22T13:16:38.475Z,19.90
2019-03-22T13:19:08.066Z,19.50
2019-03-22T13:21:38.528Z,19.00
2019-03-22T13:24:08.258Z,18.50
2019-03-22T13:26:37.860Z,17.30
2019-03-22T13:29:07.638Z,16.30
2019-03-22T13:31:38.187Z,15.50
2019-03-22T13:34:07.979Z,15.50
2019-03-22T13:36:37.725Z,14.90
2019-03-22T13:39:08.235Z,13.90
2019-03-22T13:41:37.974Z,13.80
2019-03-22T13:44:07.493Z,13.20
2019-03-22T13:46:40.564Z,13.50
2019-03-22T13:49:08.654Z,13.20
2019-03-22T13:51:38.327Z,12.70
2019-03-22T13:54:08.896Z,12.90
2019-03-22T13:56:38.699Z,13.30
2019-03-22T13:59:08.308Z,12.90
2019-03-22T14:01:38.030Z,12.00
2019-03-22T14:04:07.937Z,12.10
2019-03-22T14:06:37.705Z,12.00
2019-03-22T14:09:08.495Z,11.70
2019-03-22T14:11:38.159Z,10.80
2019-03-22T14:14:07.903Z,10.60
2019-03-22T14:16:37.562Z,10.60
2019-03-22T14:19:07.304Z,10.10
2019-03-22T14:21:37.065Z,9.80
2019-03-22T14:24:06.926Z,9.90
2019-03-22T14:26:36.555Z,10.50
2019-03-22T14:29:07.359Z,9.90
2019-03-22T14:31:37.027Z,10.20
2019-03-22T14:34:07.123Z,9.60
2019-03-22T14:36:36.939Z,10.10
2019-03-22T14:39:08.970Z,9.80
2019-03-22T14:41:38.712Z,10.50
2019-03-22T14:44:08.399Z,9.90
2019-03-22T14:46:38.132Z,9.70
2019-03-22T14:49:07.786Z,9.40
2019-03-22T14:51:37.457Z,9.90
2019-03-22T14:54:07.169Z,9.40
2019-03-22T14:56:37.047Z,10.80
2019-03-22T14:59:06.784Z,10.20
2019-03-22T15:01:36.613Z,10.20
2019-03-22T15:04:06.346Z,10.90
2019-03-22T15:06:37.212Z,10.40
2019-03-22T15:09:09.494Z,10.30
2019-03-22T15:11:39.087Z,10.10
2019-03-22T15:14:22.387Z,9.60
2019-03-22T15:17:10.130Z,10.00
2019-03-22T15:19:56.708Z,9.60
2019-03-22T15:22:44.550Z,9.60
2019-03-22T15:25:21.874Z,9.70
2019-03-22T15:28:09.656Z,9.40
2019-03-22T15:30:47.059Z,9.30
2019-03-22T15:33:18.405Z,9.80
2019-03-22T15:35:58.945Z,9.50
2019-03-22T15:38:40.479Z,9.20
2019-03-22T15:41:10.242Z,9.00
2019-03-22T15:43:39.952Z,9.60
2019-03-22T15:46:09.671Z,9.60
2019-03-22T15:48:39.310Z,9.80
2019-03-22T15:51:08.979Z,9.40
2019-03-22T15:53:38.610Z,9.80
2019-03-22T15:56:08.251Z,9.80
2019-03-22T15:58:37.966Z,10.10
2019-03-22T16:01:07.701Z,10.00
2019-03-22T16:03:44.139Z,10.10
2019-03-22T16:06:08.714Z,10.40
2019-03-22T16:08:38.436Z,10.40
2019-03-22T16:11:08.105Z,10.20
2019-03-22T16:13:37.901Z,10.50
2019-03-22T16:16:07.639Z,10.50
2019-03-22T16:18:37.370Z,11.00
2019-03-22T16:21:07.047Z,11.70
2019-03-22T16:23:36.704Z,11.90
2019-03-22T16:26:06.374Z,11.90
2019-03-22T16:28:35.946Z,13.50
2019-03-22T16:31:05.698Z,13.90
2019-03-22T16:33:35.419Z,14.90
2019-03-22T16:36:05.247Z,15.80
2019-03-22T16:38:34.908Z,16.60
2019-03-22T16:41:04.686Z,17.30
2019-03-22T16:43:34.331Z,17.50
2019-03-22T16:46:05.116Z,17.80
2019-03-22T16:48:34.776Z,18.30
2019-03-22T16:51:04.364Z,18.70
2019-03-22T16:53:34.052Z,18.90
2019-03-22T16:56:03.867Z,19.40
2019-03-22T16:58:33.677Z,20.00
2019-03-22T17:01:03.477Z,20.20
2019-03-22T17:03:33.129Z,20.00
2019-03-22T17:06:02.956Z,20.30
2019-03-22T17:08:32.772Z,20.40
2019-03-22T17:11:02.583Z,20.60
2019-03-22T17:13:32.351Z,21.40
2019-03-22T17:16:02.139Z,22.10
2019-03-22T17:18:31.935Z,21.60
2019-03-22T17:21:01.686Z,23.50
2019-03-22T17:23:31.419Z,24.30
2019-03-22T17:26:01.108Z,25.30
2019-03-22T17:28:30.778Z,26.10
2019-03-22T17:31:00.468Z,26.60
2019-03-22T17:33:30.202Z,27.20
2019-03-22T17:35:59.895Z,27.80
2019-03-22T17:38:29.726Z,28.30
2019-03-22T17:40:59.420Z,28.50
2019-03-22T17:43:29.160Z,28.50
2019-03-22T17:45:58.937Z,29.00
2019-03-22T17:48:28.679Z,29.10
2019-03-22T17:50:58.436Z,29.30
2019-03-22T17:53:28.042Z,29.40
2019-03-22T17:55:57.855Z,29.70
2019-03-22T17:58:27.634Z,30.10
2019-03-22T18:00:57.476Z,30.70
2019-03-22T18:03:27.042Z,30.90
2019-03-22T18:05:56.731Z,30.80
2019-03-22T18:08:26.459Z,31.00
2019-03-22T18:10:56.260Z,31.10
2019-03-22T18:13:25.964Z,31.20
2019-03-22T18:15:55.573Z,31.30
2019-03-22T18:18:25.243Z,31.50
2019-03-22T18:20:54.971Z,31.90
2019-03-22T18:23:24.647Z,32.10
2019-03-22T18:25:54.397Z,32.30
2019-03-22T18:28:24.068Z,32.60
2019-03-22T18:30:53.829Z,32.40
2019-03-22T18:33:23.712Z,32.30
2019-03-22T18:35:53.348Z,32.90
2019-03-22T18:38:23.196Z,33.20
2019-03-22T18:40:53.922Z,33.80
2019-03-22T18:43:23.634Z,34.00
2019-03-22T18:46:00.224Z,34.10
2019-03-22T18:48:29.845Z,34.40
2019-03-22T18:50:59.523Z,34.80
2019-03-22T18:53:29.149Z,35.30
2019-03-22T18:55:58.842Z,35.50
2019-03-22T18:58:29.435Z,35.70
2019-03-22T19:00:59.161Z,35.90
2019-03-22T19:03:28.970Z,36.10
2019-03-22T19:05:58.705Z,36.40
2019-03-22T19:08:28.376Z,36.40
2019-03-22T19:10:58.203Z,36.40
2019-03-22T19:13:30.886Z,36.70
2019-03-22T19:16:00.146Z,37.00
2019-03-22T19:18:29.818Z,37.00
2019-03-22T19:20:59.493Z,37.50
2019-03-22T19:23:29.230Z,37.80
2019-03-22T19:26:02.578Z,38.00
2019-03-22T19:28:32.423Z,38.20
2019-03-22T19:31:02.428Z,39.10
2019-03-22T19:33:49.939Z,38.60
2019-03-22T19:36:19.975Z,38.50
2019-03-22T19:38:49.703Z,38.40
2019-03-22T19:41:19.574Z,38.60
2019-03-22T19:43:49.305Z,38.80
2019-03-22T19:46:18.917Z,38.80
2019-03-22T19:48:48.571Z,38.60
2019-03-22T19:51:18.251Z,38.50
2019-03-22T19:53:47.957Z,38.50
2019-03-22T19:56:17.580Z,39.00
2019-03-22T19:58:47.235Z,39.00
2019-03-22T20:01:16.890Z,38.90
2019-03-22T20:03:46.494Z,39.30
2019-03-22T20:06:16.397Z,39.20
2019-03-22T20:08:46.012Z,38.90
2019-03-22T20:11:16.663Z,38.30
2019-03-22T20:13:46.329Z,38.80
2019-03-22T20:16:16.034Z,39.20
2019-03-22T20:18:45.644Z,39.70
2019-03-22T20:21:15.172Z,40.60
2019-03-22T20:23:53.270Z,41.20
2019-03-22T20:26:16.171Z,41.40
2019-03-22T20:28:45.845Z,41.90
2019-03-22T20:31:15.571Z,42.30
2019-03-22T20:33:45.172Z,42.50
2019-03-22T20:36:14.896Z,42.70
2019-03-22T20:38:44.682Z,43.00
2019-03-22T20:41:14.342Z,43.30
2019-03-22T20:43:44.059Z,43.50
2019-03-22T20:46:13.706Z,43.70
2019-03-22T20:48:43.697Z,43.60
2019-03-22T20:51:13.450Z,43.70
2019-03-22T20:53:43.028Z,44.30
2019-03-22T20:56:12.720Z,44.50
2019-03-22T20:58:42.299Z,45.20
2019-03-22T21:01:12.080Z,45.30
2019-03-22T21:03:41.761Z,45.50
2019-03-22T21:06:11.440Z,45.60
2019-03-22T21:08:41.256Z,45.70
2019-03-22T21:11:11.146Z,45.70
2019-03-22T21:13:40.883Z,45.70
2019-03-22T21:16:13.490Z,45.50
2019-03-22T21:18:51.971Z,46.10
2019-03-22T21:21:21.759Z,45.90
2019-03-22T21:23:51.440Z,45.70
2019-03-22T21:26:21.182Z,45.40
2019-03-22T21:28:50.854Z,45.30
2019-03-22T21:31:20.665Z,45.50
2019-03-22T21:33:50.559Z,46.10
2019-03-22T21:36:20.405Z,46.50
2019-03-22T21:38:51.477Z,46.70
2019-03-22T21:41:21.220Z,47.00
2019-03-22T21:43:50.954Z,47.50
2019-03-22T21:46:20.662Z,47.50
2019-03-22T21:48:50.627Z,47.50
2019-03-22T21:51:20.314Z,47.50
2019-03-22T21:53:49.875Z,47.30
2019-03-22T21:56:21.028Z,47.10
2019-03-22T21:58:55.494Z,47.00
2019-03-22T22:01:25.153Z,47.00
2019-03-22T22:03:56.442Z,46.90
2019-03-22T22:06:26.756Z,46.80
2019-03-22T22:08:57.988Z,46.30
2019-03-22T22:11:28.787Z,46.20
2019-03-22T22:13:58.579Z,46.20
2019-03-22T22:16:28.388Z,46.00
2019-03-22T22:18:57.985Z,46.00
2019-03-22T22:21:28.711Z,46.30
2019-03-22T22:23:58.476Z,46.20
2019-03-22T22:26:28.159Z,46.20
2019-03-22T22:28:57.813Z,46.50
2019-03-22T22:31:29.397Z,46.70
2019-03-22T22:33:59.001Z,46.90
2019-03-22T22:36:28.670Z,47.10
2019-03-22T22:38:58.329Z,47.20
2019-03-22T22:41:28.119Z,47.30
2019-03-22T22:43:57.866Z,47.30
2019-03-22T22:46:27.553Z,47.30
2019-03-22T22:48:58.137Z,47.00
2019-03-22T22:51:27.817Z,46.90
2019-03-22T22:53:57.507Z,46.60
2019-03-22T22:56:27.262Z,46.20
2019-03-22T22:58:58.071Z,46.20
2019-03-22T23:01:27.836Z,45.80
2019-03-22T23:03:57.647Z,45.70
2019-03-22T23:06:27.376Z,45.70
2019-03-22T23:08:57.060Z,45.70
2019-03-22T23:11:26.894Z,45.90
2019-03-22T23:13:56.505Z,46.40
2019-03-22T23:16:26.229Z,46.30
2019-03-22T23:18:55.894Z,46.40
2019-03-22T23:21:25.612Z,46.70
2019-03-22T23:27:37.922Z,47.00
2019-03-22T23:30:11.943Z,47.60
2019-03-22T23:32:41.719Z,47.00
2019-03-22T23:35:11.510Z,47.30
2019-03-22T23:37:41.355Z,47.40
2019-03-22T23:40:11.298Z,47.30
2019-03-22T23:42:41.063Z,47.70
2019-03-22T23:45:11.527Z,48.00
2019-03-22T23:47:41.239Z,48.70
2019-03-22T23:50:11.258Z,48.70
2019-03-22T23:52:40.903Z,48.60
2019-03-22T23:55:10.677Z,48.70
2019-03-22T23:57:40.457Z,48.50
